Time;durP1;ratioP1;P1;durP2;ratioP2;P2;SDS_P1;SDS_P2;PMS_P1;PMS_P2;Temp;Humidity;BMP_temperature;BMP_pressure;BME280_temperature;BME280_humidity;BME280_pressure;Samples;Min_cycle;Max_cycle;Signal;HPM_P1;HPM_P2
2023/12/14 00:01:48;;;;;;;52.45;23.92;;;;;;;2.55;98.27;100129.09;5091985;28;20044;-72
2023/12/14 00:04:15;;;;;;;53.10;24.13;;;;;;;2.46;98.16;100129.69;5110710;28;20411;-74
2023/12/14 00:06:42;;;;;;;55.30;25.73;;;;;;;2.51;98.58;100126.69;5092352;28;20045;-72
2023/12/14 00:09:08;;;;;;;56.72;24.52;;;;;;;2.66;98.62;100137.28;5110402;28;20048;-73
2023/12/14 00:11:39;;;;;;;54.67;25.50;;;;;;;2.59;98.45;100140.47;5110075;28;20043;-72
2023/12/14 00:14:06;;;;;;;59.20;25.38;;;;;;;2.72;98.39;100141.38;5109627;28;20051;-73
2023/12/14 00:16:33;;;;;;;58.58;25.02;;;;;;;2.71;98.13;100147.69;5109678;28;20411;-72
2023/12/14 00:18:59;;;;;;;56.47;25.55;;;;;;;2.59;97.85;100151.16;5111211;28;20055;-72
2023/12/14 00:21:28;;;;;;;56.03;24.85;;;;;;;2.74;98.01;100152.00;5110797;28;20043;-72
2023/12/14 00:23:54;;;;;;;55.55;24.70;;;;;;;2.66;97.90;100157.84;5110246;28;20043;-72
2023/12/14 00:26:21;;;;;;;54.58;25.92;;;;;;;2.69;97.85;100165.69;5109935;28;20120;-72
2023/12/14 00:28:47;;;;;;;56.22;25.80;;;;;;;2.56;97.87;100164.75;5110633;28;20044;-72
2023/12/14 00:31:14;;;;;;;53.42;25.25;;;;;;;2.43;97.89;100162.84;5109696;28;20043;-72
2023/12/14 00:33:40;;;;;;;55.28;26.13;;;;;;;2.59;98.05;100170.75;5109480;28;20491;-72
2023/12/14 00:36:07;;;;;;;67.32;25.15;;;;;;;2.40;98.05;100178.25;5109864;28;20059;-72
2023/12/14 00:38:34;;;;;;;59.38;26.42;;;;;;;2.36;98.16;100182.94;5109791;28;20047;-72
2023/12/14 00:41:01;;;;;;;60.83;27.40;;;;;;;2.32;98.43;100184.06;5110463;28;20421;-72
2023/12/14 00:43:27;;;;;;;58.10;25.75;;;;;;;2.45;98.51;100186.00;5109348;28;20491;-72
2023/12/14 00:45:55;;;;;;;67.03;26.52;;;;;;;2.60;98.17;100190.38;5110103;28;20429;-72
2023/12/14 00:48:22;;;;;;;60.10;26.75;;;;;;;2.55;97.86;100196.03;5109904;28;20115;-72
2023/12/14 00:50:48;;;;;;;60.80;24.27;;;;;;;2.52;97.55;100193.53;5109771;28;20122;-72
2023/12/14 00:53:15;;;;;;;62.47;25.65;;;;;;;2.62;97.22;100194.66;5109169;28;20044;-72
2023/12/14 00:55:41;;;;;;;62.00;24.92;;;;;;;2.45;97.63;100204.75;5109757;28;20085;-72
2023/12/14 00:58:08;;;;;;;55.65;26.05;;;;;;;2.51;97.64;100212.38;5109445;28;20134;-74
2023/12/14 01:00:35;;;;;;;63.17;25.23;;;;;;;2.33;97.51;100215.22;5092231;28;20050;-73
2023/12/14 01:03:02;;;;;;;59.58;24.17;;;;;;;2.35;98.06;100213.34;5109620;28;20100;-72
2023/12/14 01:05:29;;;;;;;69.25;26.80;;;;;;;2.39;98.14;100220.22;5109453;28;20083;-73
2023/12/14 01:07:55;;;;;;;59.03;26.25;;;;;;;2.39;97.75;100224.72;5091396;28;20035;-72
2023/12/14 01:10:22;;;;;;;60.00;24.17;;;;;;;2.23;97.58;100227.47;5109824;28;20518;-74
2023/12/14 01:12:49;;;;;;;60.45;24.08;;;;;;;2.43;97.66;100232.44;5109956;28;20083;-74
2023/12/14 01:15:16;;;;;;;57.58;24.25;;;;;;;2.46;97.59;100238.56;5109296;28;20051;-73
2023/12/14 01:17:43;;;;;;;53.97;23.98;;;;;;;2.39;97.00;100240.78;5109837;28;20158;-73
2023/12/14 01:20:11;;;;;;;54.50;24.50;;;;;;;2.32;97.71;100242.94;5109567;28;20047;-73
2023/12/14 01:22:38;;;;;;;50.17;23.85;;;;;;;2.58;97.88;100251.19;5110275;28;20043;-73
2023/12/14 01:25:05;;;;;;;49.15;24.33;;;;;;;2.59;97.35;100258.25;5091292;28;20495;-73
2023/12/14 01:27:32;;;;;;;56.13;24.65;;;;;;;2.56;97.30;100255.78;5095308;28;20048;-73
2023/12/14 01:29:58;;;;;;;48.78;21.85;;;;;;;2.81;96.50;100263.97;5114097;28;20102;-74
2023/12/14 01:32:25;;;;;;;53.30;23.38;;;;;;;2.86;96.18;100261.88;5113407;28;20051;-73
2023/12/14 01:34:51;;;;;;;45.53;21.90;;;;;;;2.82;95.80;100260.34;5111076;28;20126;-72
2023/12/14 01:37:18;;;;;;;44.58;19.70;;;;;;;2.66;96.29;100270.31;5113045;28;20543;-72
2023/12/14 01:39:45;;;;;;;45.35;21.63;;;;;;;2.80;95.76;100272.97;5110173;28;20089;-72
2023/12/14 01:42:11;;;;;;;41.60;19.80;;;;;;;2.67;95.90;100277.38;5113018;28;20052;-73
2023/12/14 01:44:38;;;;;;;43.60;21.00;;;;;;;2.72;95.76;100280.63;5113408;28;20043;-73
2023/12/14 01:47:04;;;;;;;40.20;19.42;;;;;;;2.59;95.66;100285.03;5113841;28;20472;-72
2023/12/14 01:49:31;;;;;;;39.63;19.52;;;;;;;2.46;96.31;100284.09;5114414;28;20075;-72
2023/12/14 01:51:58;;;;;;;42.15;20.50;;;;;;;2.56;96.55;100283.41;5112529;28;20263;-72
2023/12/14 01:54:24;;;;;;;39.13;17.85;;;;;;;2.67;96.23;100288.09;5105422;28;20082;-72
2023/12/14 01:56:51;;;;;;;40.08;18.27;;;;;;;2.66;95.65;100291.72;5113029;28;20097;-72
2023/12/14 01:59:18;;;;;;;36.33;17.83;;;;;;;2.60;95.44;100289.44;5112737;28;20475;-72
2023/12/14 02:01:46;;;;;;;38.15;17.90;;;;;;;2.41;95.76;100298.59;5112973;28;20052;-72
2023/12/14 02:04:14;;;;;;;37.70;18.48;;;;;;;2.43;96.67;100291.31;5112358;28;20062;-72
2023/12/14 02:07:24;;;;;;;35.10;17.85;;;;;;;2.34;96.25;100302.59;5114594;28;20503;-73
2023/12/14 02:09:51;;;;;;;31.52;16.70;;;;;;;2.53;96.06;100305.00;5112867;28;20043;-72
2023/12/14 02:12:17;;;;;;;33.20;16.48;;;;;;;2.51;96.12;100311.41;5112865;28;20040;-72
2023/12/14 02:14:44;;;;;;;39.35;17.17;;;;;;;2.55;95.45;100315.63;5113068;28;20067;-72
2023/12/14 02:17:11;;;;;;;28.25;13.70;;;;;;;2.18;94.91;100314.34;5113816;28;20490;-73
2023/12/14 02:19:38;;;;;;;33.60;15.68;;;;;;;2.06;95.87;100310.56;5113184;28;20055;-72
2023/12/14 02:22:04;;;;;;;29.55;13.98;;;;;;;1.82;96.68;100316.41;5112072;28;20122;-72
2023/12/14 02:24:31;;;;;;;28.90;14.63;;;;;;;1.77;97.00;100313.13;5094270;28;20048;-72
2023/12/14 02:26:58;;;;;;;26.75;15.02;;;;;;;1.85;96.54;100316.22;5112845;28;20051;-72
2023/12/14 02:29:29;;;;;;;;;;;;;;;2.02;97.14;100317.06;5112993;28;20043;-72
2023/12/14 02:31:56;;;;;;;31.95;14.85;;;;;;;1.77;97.24;100318.50;5112581;28;19920;-72
2023/12/14 02:34:24;;;;;;;33.90;15.23;;;;;;;1.79;97.24;100321.97;5094407;28;20563;-73
2023/12/14 02:36:51;;;;;;;29.25;14.80;;;;;;;1.89;97.13;100319.59;5112112;28;20043;-73
2023/12/14 02:39:18;;;;;;;27.50;14.23;;;;;;;1.77;97.37;100323.84;5111092;28;20047;-73
2023/12/14 02:41:45;;;;;;;26.38;14.30;;;;;;;2.09;96.82;100319.28;5112019;28;20046;-73
2023/12/14 02:44:11;;;;;;;30.75;15.50;;;;;;;2.10;96.20;100325.50;5113718;28;20043;-72
2023/12/14 02:46:38;;;;;;;34.22;15.63;;;;;;;2.04;95.94;100326.69;5111786;27;20047;-73
2023/12/14 02:49:04;;;;;;;32.00;15.77;;;;;;;1.91;96.15;100332.88;5112403;28;20561;-73
2023/12/14 02:51:31;;;;;;;34.95;17.33;;;;;;;1.90;97.10;100329.34;5111645;28;20130;-73
2023/12/14 02:53:57;;;;;;;34.25;17.60;;;;;;;2.07;96.21;100331.00;5111686;28;20047;-73
2023/12/14 02:56:24;;;;;;;37.97;18.48;;;;;;;2.09;96.13;100331.81;5093982;28;20051;-73
2023/12/14 02:58:53;;;;;;;32.08;17.25;;;;;;;1.86;96.10;100336.66;5112105;28;20047;-73
2023/12/14 03:01:24;;;;;;;34.10;18.35;;;;;;;1.91;96.79;100340.91;5111442;28;20048;-73
2023/12/14 03:03:50;;;;;;;41.03;19.15;;;;;;;1.84;96.92;100345.75;5112017;28;20046;-73
2023/12/14 03:06:17;;;;;;;32.17;18.15;;;;;;;1.65;97.12;100348.63;5111886;28;20116;-73
2023/12/14 03:08:44;;;;;;;35.20;18.67;;;;;;;1.95;97.35;100350.47;5111671;28;20120;-73
2023/12/14 03:11:10;;;;;;;38.83;18.77;;;;;;;1.80;96.88;100361.13;5112106;28;20487;-73
2023/12/14 03:13:37;;;;;;;37.33;18.92;;;;;;;1.83;97.05;100358.25;5111887;28;20126;-73
2023/12/14 03:16:04;;;;;;;37.67;19.52;;;;;;;1.82;97.26;100363.69;5111800;28;20051;-73
2023/12/14 03:18:31;;;;;;;42.45;20.25;;;;;;;1.76;97.18;100370.25;5111062;28;20486;-73
2023/12/14 03:20:57;;;;;;;42.22;19.40;;;;;;;1.81;97.23;100378.88;5111537;28;20093;-73
2023/12/14 03:23:24;;;;;;;37.80;19.20;;;;;;;2.03;96.85;100369.59;5111566;28;20494;-73
2023/12/14 03:25:51;;;;;;;42.05;18.77;;;;;;;2.03;97.03;100373.13;5110500;27;20063;-73
2023/12/14 03:28:17;;;;;;;42.42;19.85;;;;;;;1.98;96.50;100385.03;5111276;27;20043;-73
2023/12/14 03:30:44;;;;;;;38.60;19.40;;;;;;;1.94;96.77;100386.19;5111573;27;20047;-73
2023/12/14 03:33:10;;;;;;;37.35;19.63;;;;;;;1.79;96.48;100386.13;5111923;28;20051;-73
2023/12/14 03:35:37;;;;;;;40.45;19.58;;;;;;;1.65;97.42;100393.19;5111868;28;20039;-73
2023/12/14 03:38:04;;;;;;;42.03;20.13;;;;;;;1.73;96.86;100391.81;5110701;28;20043;-73
2023/12/14 03:40:31;;;;;;;38.25;20.33;;;;;;;1.83;97.34;100397.50;5110844;28;20047;-73
2023/12/14 03:42:58;;;;;;;43.92;20.23;;;;;;;2.09;96.56;100398.69;5110378;28;20415;-73
2023/12/14 03:45:24;;;;;;;42.40;19.13;;;;;;;1.88;96.05;100400.75;5111222;28;20116;-73
2023/12/14 03:47:51;;;;;;;39.95;19.17;;;;;;;1.94;97.04;100408.44;5110970;28;20156;-73
2023/12/14 03:50:17;;;;;;;39.70;18.90;;;;;;;2.07;96.99;100409.47;5110381;28;20105;-72
2023/12/14 03:52:44;;;;;;;45.30;18.17;;;;;;;2.11;96.28;100410.16;5110419;28;20047;-73
2023/12/14 03:55:11;;;;;;;36.45;18.55;;;;;;;2.03;96.75;100417.75;5085994;28;20039;-73
2023/12/14 03:57:38;;;;;;;38.72;18.80;;;;;;;2.16;96.89;100418.75;5111140;28;20457;-73
2023/12/14 04:00:08;;;;;;;36.78;17.73;;;;;;;2.11;95.97;100428.88;5110576;28;20051;-73
2023/12/14 04:02:35;;;;;;;36.40;16.73;;;;;;;2.30;96.01;100432.19;5110720;28;20052;-73
2023/12/14 04:05:02;;;;;;;43.50;19.35;;;;;;;2.33;95.99;100441.84;5093293;28;20051;-73
2023/12/14 04:07:28;;;;;;;39.47;18.27;;;;;;;2.22;95.85;100442.47;5109888;28;20035;-73
2023/12/14 04:09:55;;;;;;;36.42;17.88;;;;;;;2.05;95.62;100435.44;5110200;28;20482;-73
2023/12/14 04:12:22;;;;;;;37.90;17.67;;;;;;;1.90;96.22;100448.84;5109993;28;20119;-73
2023/12/14 04:14:49;;;;;;;36.50;17.90;;;;;;;2.21;95.97;100439.91;5111082;28;20066;-73
2023/12/14 04:17:16;;;;;;;39.47;17.23;;;;;;;2.22;95.50;100442.47;5110275;28;20504;-72
2023/12/14 04:19:42;;;;;;;36.92;16.85;;;;;;;2.03;96.44;100439.16;5110361;28;20409;-72
2023/12/14 04:22:09;;;;;;;34.90;17.33;;;;;;;2.31;95.88;100446.44;5111079;28;20486;-72
2023/12/14 04:24:36;;;;;;;37.75;17.58;;;;;;;2.22;95.84;100452.31;5110178;28;20044;-72
2023/12/14 04:27:02;;;;;;;34.35;16.80;;;;;;;2.11;95.59;100466.31;5110140;28;20055;-72
2023/12/14 04:29:29;;;;;;;39.45;16.05;;;;;;;2.28;95.10;100474.25;5110682;28;20036;-72
2023/12/14 04:31:55;;;;;;;32.20;15.40;;;;;;;2.25;95.22;100469.06;5110307;28;20093;-72
2023/12/14 04:34:22;;;;;;;26.05;14.38;;;;;;;2.41;94.54;100472.56;5110179;28;20053;-72
2023/12/14 04:36:49;;;;;;;23.42;14.07;;;;;;;2.17;95.10;100473.16;5109696;28;20050;-73
2023/12/14 04:39:17;;;;;;;29.50;14.25;;;;;;;2.28;95.44;100473.38;5109657;28;20534;-72
2023/12/14 04:41:44;;;;;;;24.20;13.05;;;;;;;2.10;95.37;100480.66;5110201;28;20044;-72
2023/12/14 04:44:11;;;;;;;26.85;13.95;;;;;;;2.27;94.95;100477.03;5111201;28;20043;-73
2023/12/14 04:46:38;;;;;;;26.23;13.98;;;;;;;1.94;95.19;100485.16;5110081;28;20043;-73
2023/12/14 04:49:05;;;;;;;24.48;13.35;;;;;;;2.11;95.63;100488.59;5109680;28;20387;-73
2023/12/14 04:51:32;;;;;;;28.48;13.90;;;;;;;2.21;95.29;100486.25;5110082;28;20039;-74
2023/12/14 04:53:58;;;;;;;31.17;13.63;;;;;;;1.91;95.61;100490.69;5109971;28;20052;-73
2023/12/14 04:56:25;;;;;;;27.63;14.30;;;;;;;1.90;96.16;100489.81;5109186;28;20044;-72
2023/12/14 04:58:52;;;;;;;31.45;14.77;;;;;;;1.74;96.62;100497.81;5110172;28;20122;-74
2023/12/14 05:01:18;;;;;;;33.28;15.18;;;;;;;1.55;97.31;100497.09;5109229;28;20046;-72
2023/12/14 05:03:45;;;;;;;33.00;15.05;;;;;;;1.71;97.17;100500.66;5110325;28;20039;-74
2023/12/14 05:06:11;;;;;;;32.08;14.80;;;;;;;1.83;96.95;100502.66;5110149;28;20063;-72
2023/12/14 05:08:38;;;;;;;27.08;14.32;;;;;;;1.67;97.11;100498.22;5110324;28;20063;-72
2023/12/14 05:11:05;;;;;;;37.53;15.85;;;;;;;1.79;96.98;100513.59;5108793;28;20047;-72
2023/12/14 05:13:35;;;;;;;35.03;15.98;;;;;;;1.79;97.42;100516.25;5109871;28;20395;-73
2023/12/14 05:16:02;;;;;;;39.42;16.60;;;;;;;1.76;97.35;100514.63;5109375;28;20074;-72
2023/12/14 05:18:28;;;;;;;28.60;15.75;;;;;;;1.79;97.03;100519.84;5109130;28;20112;-72
2023/12/14 05:20:55;;;;;;;41.55;16.17;;;;;;;1.94;96.99;100530.59;5108778;28;20043;-73
2023/12/14 05:23:21;;;;;;;30.27;16.35;;;;;;;1.92;96.82;100536.06;5109449;28;20039;-72
2023/12/14 05:25:48;;;;;;;32.35;16.80;;;;;;;2.17;96.45;100546.25;5108655;28;20035;-72
2023/12/14 05:28:15;;;;;;;32.55;16.70;;;;;;;1.85;96.84;100551.56;5110083;28;20074;-72
2023/12/14 05:30:41;;;;;;;36.40;16.35;;;;;;;1.89;96.81;100562.13;5092358;28;20039;-73
2023/12/14 05:33:08;;;;;;;29.08;16.13;;;;;;;2.09;96.60;100561.88;5109761;28;20051;-73
2023/12/14 05:35:38;;;;;;;30.98;15.10;;;;;;;2.15;96.52;100566.84;5109961;28;20384;-73
2023/12/14 05:38:05;;;;;;;34.45;16.50;;;;;;;2.07;96.51;100574.44;5109598;28;20047;-72
2023/12/14 05:40:32;;;;;;;31.73;15.70;;;;;;;2.18;96.11;100574.75;5077219;28;20044;-72
2023/12/14 05:42:58;;;;;;;26.73;15.80;;;;;;;2.14;96.04;100573.16;5088591;28;20052;-72
2023/12/14 05:45:26;;;;;;;30.40;15.88;;;;;;;1.86;96.19;100584.50;5088619;28;20044;-74
2023/12/14 05:47:52;;;;;;;32.13;16.13;;;;;;;1.82;96.70;100594.53;5088306;28;20093;-73
2023/12/14 05:50:19;;;;;;;29.88;15.45;;;;;;;1.77;97.29;100585.88;5088132;28;20052;-73
2023/12/14 05:52:46;;;;;;;29.33;16.50;;;;;;;1.78;97.64;100592.94;5088912;28;20044;-72
2023/12/14 05:55:12;;;;;;;28.05;15.27;;;;;;;1.87;97.43;100594.25;5088581;28;20048;-73
2023/12/14 05:57:39;;;;;;;28.58;16.40;;;;;;;1.77;97.25;100591.22;5089601;28;20052;-73
2023/12/14 06:00:09;;;;;;;32.15;16.15;;;;;;;1.78;97.51;100598.28;5088958;28;20539;-73
2023/12/14 06:02:36;;;;;;;31.85;16.77;;;;;;;1.87;97.44;100607.63;5088544;28;20055;-73
2023/12/14 06:05:06;;;;;;;28.85;15.20;;;;;;;2.06;97.52;100608.34;5088824;28;20048;-73
2023/12/14 06:07:33;;;;;;;36.97;16.00;;;;;;;1.90;97.29;100609.31;5088222;28;20048;-73
2023/12/14 06:10:00;;;;;;;28.02;16.73;;;;;;;1.97;97.36;100608.00;5088584;28;20048;-73
2023/12/14 06:12:27;;;;;;;29.27;16.52;;;;;;;1.76;97.53;100610.88;5071150;28;20044;-72
2023/12/14 06:14:53;;;;;;;29.75;15.40;;;;;;;2.00;97.52;100619.41;5092537;28;20128;-73
2023/12/14 06:17:20;;;;;;;29.27;16.40;;;;;;;1.99;96.72;100622.19;5091889;28;20476;-73
2023/12/14 06:19:47;;;;;;;26.88;14.98;;;;;;;1.78;96.92;100626.84;5092892;28;20101;-73
2023/12/14 06:22:13;;;;;;;32.10;16.48;;;;;;;1.85;96.80;100634.47;5092099;28;20040;-73
2023/12/14 06:24:40;;;;;;;30.13;16.02;;;;;;;2.00;96.82;100637.28;5092786;28;20059;-73
2023/12/14 06:27:07;;;;;;;30.00;14.90;;;;;;;1.83;96.70;100639.03;5092058;28;20044;-73
2023/12/14 06:29:33;;;;;;;25.80;15.27;;;;;;;1.74;96.50;100628.84;5091734;28;20039;-73
2023/12/14 06:32:00;;;;;;;27.40;15.90;;;;;;;1.85;96.69;100634.47;5092284;28;20052;-73
2023/12/14 06:34:27;;;;;;;23.35;15.02;;;;;;;1.98;96.86;100636.47;5092016;28;20048;-73
2023/12/14 06:36:53;;;;;;;24.13;15.45;;;;;;;1.84;96.65;100643.44;5092291;28;20068;-73
2023/12/14 06:39:20;;;;;;;22.88;13.73;;;;;;;1.73;96.65;100647.63;5077524;28;20043;-73
2023/12/14 06:41:46;;;;;;;23.75;14.32;;;;;;;1.92;96.50;100647.53;5111842;28;20039;-73
2023/12/14 06:44:13;;;;;;;25.25;14.88;;;;;;;1.78;96.06;100651.78;5112030;28;20043;-73
2023/12/14 06:46:39;;;;;;;25.52;14.15;;;;;;;1.95;96.38;100658.03;5112257;28;20130;-73
2023/12/14 06:49:06;;;;;;;23.88;14.38;;;;;;;1.91;96.21;100661.84;5111377;28;20043;-73
2023/12/14 06:51:33;;;;;;;26.58;13.07;;;;;;;1.81;95.56;100670.34;5093688;28;20051;-73
2023/12/14 06:53:59;;;;;;;23.98;14.45;;;;;;;1.69;96.17;100670.97;5111488;28;20462;-73
2023/12/14 06:56:26;;;;;;;24.98;14.10;;;;;;;1.77;96.31;100682.13;5110855;28;20164;-73
2023/12/14 06:58:52;;;;;;;23.67;14.18;;;;;;;1.74;96.52;100689.47;5111391;28;20044;-73
2023/12/14 07:01:19;;;;;;;24.55;14.55;;;;;;;1.68;96.59;100687.97;5110849;28;20053;-73
2023/12/14 07:03:46;;;;;;;24.77;14.65;;;;;;;1.61;96.89;100686.59;5111960;28;20207;-73
2023/12/14 07:06:14;;;;;;;23.27;14.05;;;;;;;1.73;96.51;100699.31;5093426;28;20491;-73
2023/12/14 07:08:42;;;;;;;24.80;15.10;;;;;;;1.80;96.48;100698.03;5112702;28;20150;-73
2023/12/14 07:11:09;;;;;;;23.30;14.80;;;;;;;1.71;95.96;100698.53;5111812;28;20486;-74
2023/12/14 07:13:38;;;;;;;25.30;15.25;;;;;;;1.90;96.44;100713.59;5112272;28;20043;-74
2023/12/14 07:16:09;;;;;;;25.67;15.07;;;;;;;1.94;95.96;100716.03;5111616;27;20068;-74
2023/12/14 07:18:36;;;;;;;25.45;15.38;;;;;;;1.89;95.54;100720.78;5111971;28;20444;-75
2023/12/14 07:21:04;;;;;;;22.33;14.68;;;;;;;1.86;95.54;100721.78;5111340;28;20126;-73
2023/12/14 07:23:31;;;;;;;30.98;14.13;;;;;;;1.99;96.23;100734.53;5110841;28;20074;-74
2023/12/14 07:25:58;;;;;;;23.70;14.85;;;;;;;1.97;95.38;100737.25;5111730;28;20043;-73
2023/12/14 07:28:29;;;;;;;19.63;11.60;;;;;;;2.23;95.56;100743.91;5111203;28;20399;-73
2023/12/14 07:30:56;;;;;;;21.85;13.93;;;;;;;2.36;94.29;100744.13;5111544;28;20051;-73
2023/12/14 07:33:22;;;;;;;22.13;14.57;;;;;;;2.47;94.46;100746.22;5110880;28;20043;-73
2023/12/14 07:35:49;;;;;;;23.80;14.15;;;;;;;2.41;94.06;100755.44;5110689;28;20043;-73
2023/12/14 07:38:16;;;;;;;19.58;13.40;;;;;;;2.48;93.86;100761.34;5092509;28;20051;-74
2023/12/14 07:40:42;;;;;;;22.00;13.93;;;;;;;2.59;92.81;100761.63;5110021;28;20044;-73
2023/12/14 07:43:09;;;;;;;23.33;13.73;;;;;;;2.46;93.57;100771.28;5111394;28;20067;-73
2023/12/14 07:45:35;;;;;;;23.80;14.77;;;;;;;2.35;94.47;100770.03;5110741;28;20126;-73
2023/12/14 07:48:03;;;;;;;23.33;13.82;;;;;;;2.26;94.36;100775.03;5110963;28;20115;-73
2023/12/14 07:50:30;;;;;;;23.08;13.93;;;;;;;2.40;94.15;100784.03;5110589;28;20047;-73
2023/12/14 07:52:57;;;;;;;24.25;14.27;;;;;;;2.36;93.83;100781.59;5110506;28;20044;-74
2023/12/14 07:55:24;;;;;;;23.80;14.07;;;;;;;1.90;94.18;100783.16;5111097;28;20043;-73
2023/12/14 07:57:51;;;;;;;18.90;12.80;;;;;;;1.98;95.26;100788.94;5110521;28;20048;-73
2023/12/14 08:00:18;;;;;;;23.25;14.07;;;;;;;2.06;94.86;100800.13;5110498;28;20084;-73
2023/12/14 08:02:44;;;;;;;25.75;14.88;;;;;;;2.25;94.29;100790.19;5109995;28;20405;-73
2023/12/14 08:05:11;;;;;;;24.63;14.80;;;;;;;2.01;94.24;100802.19;5111514;28;20089;-73
2023/12/14 08:07:40;;;;;;;28.75;16.27;;;;;;;2.03;94.62;100805.63;5110821;28;20055;-73
2023/12/14 08:10:07;;;;;;;28.45;16.05;;;;;;;1.98;94.80;100805.88;5110365;28;20047;-73
2023/12/14 08:12:33;;;;;;;25.83;15.73;;;;;;;1.93;95.01;100802.56;5109615;28;20412;-73
2023/12/14 08:15:00;;;;;;;30.52;17.45;;;;;;;2.05;94.98;100811.75;5110555;28;20086;-73
2023/12/14 08:17:27;;;;;;;32.50;16.00;;;;;;;1.82;94.64;100810.28;5110002;28;20423;-73
2023/12/14 08:19:54;;;;;;;30.95;16.45;;;;;;;2.03;95.13;100813.66;5110036;28;20136;-73
2023/12/14 08:22:21;;;;;;;28.98;17.02;;;;;;;2.02;94.81;100815.47;5110107;28;20048;-73
2023/12/14 08:24:48;;;;;;;29.60;17.83;;;;;;;2.24;94.24;100828.59;5109889;28;20062;-73
2023/12/14 08:27:15;;;;;;;31.17;17.65;;;;;;;2.19;94.57;100827.13;5109893;28;20252;-73
2023/12/14 08:29:45;;;;;;;35.67;18.83;;;;;;;2.32;94.54;100828.19;5110809;28;20078;-73
2023/12/14 08:32:11;;;;;;;29.42;18.75;;;;;;;2.26;93.42;100842.78;5110166;28;20067;-73
2023/12/14 08:34:40;;;;;;;32.78;18.15;;;;;;;2.22;94.27;100838.53;5109881;28;20047;-73
2023/12/14 08:37:07;;;;;;;39.75;19.63;;;;;;;2.30;94.19;100846.16;5108322;28;20044;-73
2023/12/14 08:39:34;;;;;;;34.38;19.45;;;;;;;2.30;94.30;100857.72;5109375;28;20062;-73
2023/12/14 08:42:00;;;;;;;33.15;18.42;;;;;;;2.30;93.75;100856.88;5108965;28;20502;-72
2023/12/14 08:44:27;;;;;;;35.05;18.55;;;;;;;2.06;93.75;100864.31;5109692;28;20044;-73
2023/12/14 08:46:54;;;;;;;30.13;18.13;;;;;;;2.20;93.88;100861.81;5109544;28;20047;-73
2023/12/14 08:49:23;;;;;;;31.92;18.88;;;;;;;2.25;93.68;100862.44;5091067;28;20416;-73
2023/12/14 08:51:50;;;;;;;30.73;18.33;;;;;;;1.93;94.26;100871.25;5109683;28;20108;-73
2023/12/14 08:54:17;;;;;;;35.03;19.55;;;;;;;1.79;94.31;100872.81;5090932;28;20039;-73
2023/12/14 08:56:45;;;;;;;31.25;18.92;;;;;;;1.72;94.12;100882.06;5110165;28;20395;-74
2023/12/14 08:59:11;;;;;;;31.25;19.40;;;;;;;1.78;94.23;100892.44;5111141;28;20039;-75
2023/12/14 09:01:38;;;;;;;28.52;18.15;;;;;;;1.81;94.45;100886.97;5110047;28;20445;-75
2023/12/14 09:04:05;;;;;;;28.25;18.33;;;;;;;1.78;94.19;100887.09;5109758;28;20043;-75
2023/12/14 09:06:32;;;;;;;30.35;18.67;;;;;;;1.72;94.28;100897.25;5109603;28;20051;-75
2023/12/14 09:08:59;;;;;;;31.92;18.48;;;;;;;1.81;94.30;100903.03;5109999;28;20051;-74
2023/12/14 09:11:28;;;;;;;31.27;19.40;;;;;;;1.81;94.58;100910.19;5110640;28;20051;-75
2023/12/14 09:13:55;;;;;;;29.27;18.42;;;;;;;1.73;94.02;100905.19;5109762;28;20051;-74
2023/12/14 09:16:22;;;;;;;32.80;18.20;;;;;;;1.70;93.95;100907.13;5110572;28;20530;-75
2023/12/14 09:18:48;;;;;;;33.67;18.10;;;;;;;1.67;94.32;100916.19;5125498;28;20043;-71
2023/12/14 09:21:15;;;;;;;31.73;18.48;;;;;;;1.71;94.46;100920.47;5126685;28;20047;-71
2023/12/14 09:23:42;;;;;;;27.85;18.52;;;;;;;1.69;94.58;100933.00;5126272;28;20108;-73
2023/12/14 09:26:10;;;;;;;40.33;20.88;;;;;;;1.79;95.02;100928.97;5125309;28;20077;-73
2023/12/14 09:28:37;;;;;;;33.40;19.27;;;;;;;1.79;94.48;100931.66;5124856;28;20047;-73
2023/12/14 09:31:03;;;;;;;30.63;17.60;;;;;;;1.73;94.29;100937.28;5125319;28;20044;-73
2023/12/14 09:33:34;;;;;;;34.50;19.15;;;;;;;1.76;94.92;100942.47;5109597;28;20039;-73
2023/12/14 09:36:00;;;;;;;36.30;20.75;;;;;;;1.80;94.33;100944.06;5118993;28;20067;-76
2023/12/14 09:38:27;;;;;;;35.80;20.83;;;;;;;1.74;94.12;100943.50;5110440;28;20055;-76
2023/12/14 09:40:54;;;;;;;36.88;19.90;;;;;;;1.77;94.46;100954.03;5109729;28;20093;-76
2023/12/14 09:43:23;;;;;;;33.80;19.90;;;;;;;1.77;94.52;100951.38;5110405;28;20074;-76
2023/12/14 09:45:54;;;;;;;36.83;20.67;;;;;;;1.81;94.81;100956.50;5109112;28;20142;-76
2023/12/14 09:48:22;;;;;;;34.85;20.75;;;;;;;1.95;94.49;100962.97;5113029;28;20044;-74
2023/12/14 09:50:50;;;;;;;34.97;20.17;;;;;;;2.31;93.02;100960.31;5113493;28;20047;-75
2023/12/14 09:53:16;;;;;;;34.38;19.65;;;;;;;2.49;92.44;100958.50;5113200;28;20044;-74
2023/12/14 09:55:43;;;;;;;31.50;18.50;;;;;;;2.00;93.48;100966.31;5112822;28;20067;-74
2023/12/14 09:58:10;;;;;;;35.60;20.17;;;;;;;2.05;94.44;100966.94;5114140;28;20066;-74
2023/12/14 10:00:39;;;;;;;41.58;20.88;;;;;;;2.29;93.28;100963.06;5113048;28;20490;-74
2023/12/14 10:03:26;;;;;;;32.75;18.83;;;;;;;2.11;93.92;100961.28;5113121;28;20130;-75
2023/12/14 10:05:54;;;;;;;32.92;19.17;;;;;;;2.12;94.10;100963.88;5112899;28;20036;-75
2023/12/14 10:08:22;;;;;;;32.67;18.98;;;;;;;2.19;93.69;100971.63;5113616;28;20135;-75
2023/12/14 10:10:52;;;;;;;30.08;17.25;;;;;;;2.31;93.48;100977.22;5113155;27;20045;-75
2023/12/14 10:13:21;;;;;;;31.60;18.35;;;;;;;2.44;92.86;100977.47;5112775;28;20543;-75
2023/12/14 10:15:49;;;;;;;30.80;18.60;;;;;;;2.03;93.42;100977.72;5112868;28;20495;-75
2023/12/14 10:18:24;;;;;;;31.85;17.95;;;;;;;2.13;93.47;100986.16;5113012;28;20096;-74
2023/12/14 10:20:51;;;;;;;32.83;17.73;;;;;;;2.14;93.29;100986.09;5113145;28;20093;-75
2023/12/14 10:23:18;;;;;;;34.92;18.88;;;;;;;1.89;94.02;100980.22;5112235;28;20051;-74
2023/12/14 10:25:45;;;;;;;31.50;18.75;;;;;;;2.00;94.22;100990.38;5113229;28;20096;-74
2023/12/14 10:28:14;;;;;;;25.80;16.95;;;;;;;2.05;93.37;100985.66;5113434;28;20043;-74
2023/12/14 10:30:41;;;;;;;29.00;18.25;;;;;;;1.98;93.21;100990.47;5113101;28;20044;-76
2023/12/14 10:33:08;;;;;;;26.40;16.73;;;;;;;2.22;93.72;100993.75;5113441;28;20410;-76
2023/12/14 10:35:35;;;;;;;29.33;17.65;;;;;;;2.06;93.13;100998.97;5113128;28;20093;-74
2023/12/14 10:38:09;;;;;;;28.80;16.48;;;;;;;2.15;93.37;101008.34;5111907;28;20052;-75
2023/12/14 10:40:40;;;;;;;27.33;16.75;;;;;;;1.95;93.52;101008.47;5112287;28;20096;-76
2023/12/14 10:43:08;;;;;;;26.10;16.33;;;;;;;2.04;93.68;101016.03;5112463;28;20039;-76
2023/12/14 10:45:35;;;;;;;27.00;17.13;;;;;;;2.01;93.99;101016.19;5112888;28;20052;-75
2023/12/14 10:48:03;;;;;;;29.92;17.27;;;;;;;2.04;94.03;101013.38;5112290;28;20143;-76
2023/12/14 10:50:33;;;;;;;26.27;16.05;;;;;;;2.15;93.94;101027.09;5113073;28;20436;-76
2023/12/14 10:53:01;;;;;;;26.13;17.52;;;;;;;2.27;92.99;101029.19;5112869;28;20419;-74
2023/12/14 10:55:37;;;;;;;26.48;17.23;;;;;;;2.35;92.90;101026.09;5112771;28;20043;-75
2023/12/14 10:58:04;;;;;;;28.90;16.83;;;;;;;2.65;91.91;101035.31;5112287;28;20055;-74
2023/12/14 11:00:33;;;;;;;30.27;16.65;;;;;;;2.20;92.20;101032.22;5111875;28;21164;-73
2023/12/14 11:03:00;;;;;;;23.88;15.57;;;;;;;2.26;92.61;101031.94;5111726;28;20054;-73
2023/12/14 11:05:30;;;;;;;26.48;16.35;;;;;;;2.42;92.24;101039.13;5111890;28;20097;-74
2023/12/14 11:08:09;;;;;;;26.67;16.40;;;;;;;2.14;91.92;101033.38;5093890;28;20411;-73
2023/12/14 11:10:41;;;;;;;26.10;16.50;;;;;;;1.95;92.81;101036.06;5111827;27;20525;-73
2023/12/14 11:13:11;;;;;;;27.25;15.50;;;;;;;1.86;93.10;101032.03;5111944;28;20475;-72
2023/12/14 11:15:40;;;;;;;25.38;16.23;;;;;;;1.89;93.34;101032.84;5112089;28;20050;-73
2023/12/14 11:18:12;;;;;;;27.42;16.48;;;;;;;1.83;93.05;101032.19;5111411;28;20099;-75